Vinga — LACP7 — position and weather

sailwx.info

Track history (hours):
 
Tides and Currents Weather Stations Pressure Air Temp Water Temp Dewpoint Dewpoint Depression Visibility Wind Speed Wind Dir Waves Ship Positions

Vinga

Last reported at 2017-Sep-18 02:12 UTC. Time now 2017-Sep-24 14:17 UTC.
Position N 36°05' W 005°14'.

Length 274 m; draft 8.6 m.

Type: Tanker. MMSI: 257792000.

Date/timePositionNaut miles runAvg speedWind from/ knotsBaromVisibWave heightAir tempDewpointWater temp
2017-Sep-18 02:12N 36°05' W 005°14'211.8
2017-Sep-18 02:00N 36°04' W 005°17'510.2
2017-Sep-18 01:30N 36°07' W 005°23'1 0.1
2017-Sep-17 20:10N 36°08' W 005°23'0 0.2
2017-Sep-17 19:55N 36°08' W 005°23'0 0.1
2017-Sep-17 19:25N 36°08' W 005°23'0 0.1
2017-Sep-17 17:31N 36°08' W 005°22'0 0.2
2017-Sep-17 17:28N 36°08' W 005°22'0 0.1
2017-Sep-17 16:55N 36°08' W 005°22'0 0.1
2017-Sep-17 16:28N 36°08' W 005°22'0 0.0
2017-Sep-17 15:58N 36°08' W 005°22'0 0.0
2017-Sep-17 15:28N 36°08' W 005°22'0 0.0
2017-Sep-17 14:58N 36°08' W 005°22'0 0.1
2017-Sep-17 12:37N 36°07' W 005°23'0 1.0
2017-Sep-17 12:19N 36°07' W 005°22'1 4.6
2017-Sep-17 12:00N 36°06' W 005°21'2 4.6
2017-Sep-17 11:30N 36°05' W 005°19'3 5.2
2017-Sep-17 11:00N 36°06' W 005°16'6 0.4
2017-Sep-16 21:03N 36°05' W 005°08'3 1.2
2017-Sep-16 18:33N 36°07' W 005°10'0 1.3
2017-Sep-16 18:24N 36°07' W 005°10'1 1.3
2017-Sep-16 17:57N 36°08' W 005°11'1 2.0
2017-Sep-16 17:30N 36°08' W 005°10'3 0.5
2017-Sep-16 12:04N 36°06' W 005°09'113.3
2017-Sep-16 12:00N 36°05' W 005°10'715.2
2017-Sep-16 11:30N 36°01' W 005°17'714.8
2017-Sep-16 11:00N 35°58' W 005°26'  
2017-Sep-12 05:15N 35°57' W 005°35'312.1
2017-Sep-12 05:01N 35°58' W 005°32'611.4
2017-Sep-12 04:31N 35°60' W 005°25'510.7
2017-Sep-12 04:01N 36°01' W 005°19'510.5
2017-Sep-12 03:30N 36°03' W 005°12'510.6
2017-Sep-12 02:59N 36°04' W 005°06'610.7
2017-Sep-12 02:26N 36°04' W 004°58'16812.4
2017-Sep-11 12:56N 36°25' W 001°32'6913.0
2017-Sep-11 07:38N 36°42' W 000°08'212.3
2017-Sep-11 07:29N 36°42' W 000°06'612.5
2017-Sep-11 07:00N 36°44' E 000°01'814.4
2017-Sep-11 06:28N 36°46' E 000°10'612.6
2017-Sep-11 05:58N 36°47' E 000°18'611.2
2017-Sep-11 05:26N 36°49' E 000°25'711.4
2017-Sep-11 04:52N 36°50' E 000°33'512.5
2017-Sep-11 04:29N 36°51' E 000°39'612.5
2017-Sep-11 04:00N 36°52' E 000°46'1612.7
2017-Sep-11 02:44N 36°55' E 001°06'37912.5
2017-Sep-09 20:21N 37°44' E 008°59'512.8
2017-Sep-09 19:55N 37°44' E 009°06'512.7
2017-Sep-09 19:30N 37°43' E 009°12'712.9
2017-Sep-09 18:59N 37°42' E 009°21'713.0
2017-Sep-09 18:29N 37°42' E 009°29'613.1
2017-Sep-09 18:00N 37°41' E 009°37'813.0
2017-Sep-09 17:24N 37°40' E 009°47'513.0
2017-Sep-09 16:59N 37°40' E 009°54'612.8
2017-Sep-09 16:30N 37°39' E 010°01'712.8
2017-Sep-09 15:58N 37°39' E 010°10'19512.7
2017-Sep-09 00:34N 36°34' E 014°01'112.2
2017-Sep-09 00:30N 36°34' E 014°02'812.3
2017-Sep-08 23:52N 36°32' E 014°11'712.7
2017-Sep-08 23:18N 36°29' E 014°19'412.7
2017-Sep-08 22:59N 36°28' E 014°24'612.6
2017-Sep-08 22:30N 36°27' E 014°32'612.6
2017-Sep-08 22:00N 36°25' E 014°39'  
Track history (hours):
 
Tides and Currents Weather Stations Pressure Air Temp Water Temp Dewpoint Dewpoint Depression Visibility Wind Speed Wind Dir Waves Ship Positions

Vinga

Last reported at 2017-Sep-18 02:12 UTC. Time now 2017-Sep-24 14:17 UTC.
Position N 36°05' W 005°14'.

Length 274 m; draft 8.6 m.

Type: Tanker. MMSI: 257792000.

Date/timePositionNaut miles runAvg speedWind from/ knotsBaromVisibWave heightAir tempDewpointWater temp
2017-Sep-18 02:12N 36°05' W 005°14'211.8
2017-Sep-18 02:00N 36°04' W 005°17'510.2
2017-Sep-18 01:30N 36°07' W 005°23'1 0.1
2017-Sep-17 20:10N 36°08' W 005°23'0 0.2
2017-Sep-17 19:55N 36°08' W 005°23'0 0.1
2017-Sep-17 19:25N 36°08' W 005°23'0 0.1
2017-Sep-17 17:31N 36°08' W 005°22'0 0.2
2017-Sep-17 17:28N 36°08' W 005°22'0 0.1
2017-Sep-17 16:55N 36°08' W 005°22'0 0.1
2017-Sep-17 16:28N 36°08' W 005°22'0 0.0
2017-Sep-17 15:58N 36°08' W 005°22'0 0.0
2017-Sep-17 15:28N 36°08' W 005°22'0 0.0
2017-Sep-17 14:58N 36°08' W 005°22'0 0.1
2017-Sep-17 12:37N 36°07' W 005°23'0 1.0
2017-Sep-17 12:19N 36°07' W 005°22'1 4.6
2017-Sep-17 12:00N 36°06' W 005°21'2 4.6
2017-Sep-17 11:30N 36°05' W 005°19'3 5.2
2017-Sep-17 11:00N 36°06' W 005°16'6 0.4
2017-Sep-16 21:03N 36°05' W 005°08'3 1.2
2017-Sep-16 18:33N 36°07' W 005°10'0 1.3
2017-Sep-16 18:24N 36°07' W 005°10'1 1.3
2017-Sep-16 17:57N 36°08' W 005°11'1 2.0
2017-Sep-16 17:30N 36°08' W 005°10'3 0.5
2017-Sep-16 12:04N 36°06' W 005°09'113.3
2017-Sep-16 12:00N 36°05' W 005°10'715.2
2017-Sep-16 11:30N 36°01' W 005°17'714.8
2017-Sep-16 11:00N 35°58' W 005°26'  
2017-Sep-12 05:15N 35°57' W 005°35'312.1
2017-Sep-12 05:01N 35°58' W 005°32'611.4
2017-Sep-12 04:31N 35°60' W 005°25'510.7
2017-Sep-12 04:01N 36°01' W 005°19'510.5
2017-Sep-12 03:30N 36°03' W 005°12'510.6
2017-Sep-12 02:59N 36°04' W 005°06'610.7
2017-Sep-12 02:26N 36°04' W 004°58'16812.4
2017-Sep-11 12:56N 36°25' W 001°32'6913.0
2017-Sep-11 07:38N 36°42' W 000°08'212.3
2017-Sep-11 07:29N 36°42' W 000°06'612.5
2017-Sep-11 07:00N 36°44' E 000°01'814.4
2017-Sep-11 06:28N 36°46' E 000°10'612.6
2017-Sep-11 05:58N 36°47' E 000°18'611.2
2017-Sep-11 05:26N 36°49' E 000°25'711.4
2017-Sep-11 04:52N 36°50' E 000°33'512.5
2017-Sep-11 04:29N 36°51' E 000°39'612.5
2017-Sep-11 04:00N 36°52' E 000°46'1612.7
2017-Sep-11 02:44N 36°55' E 001°06'37912.5
2017-Sep-09 20:21N 37°44' E 008°59'512.8
2017-Sep-09 19:55N 37°44' E 009°06'512.7
2017-Sep-09 19:30N 37°43' E 009°12'712.9
2017-Sep-09 18:59N 37°42' E 009°21'713.0
2017-Sep-09 18:29N 37°42' E 009°29'613.1
2017-Sep-09 18:00N 37°41' E 009°37'813.0
2017-Sep-09 17:24N 37°40' E 009°47'513.0
2017-Sep-09 16:59N 37°40' E 009°54'612.8
2017-Sep-09 16:30N 37°39' E 010°01'712.8
2017-Sep-09 15:58N 37°39' E 010°10'19512.7
2017-Sep-09 00:34N 36°34' E 014°01'112.2
2017-Sep-09 00:30N 36°34' E 014°02'812.3
2017-Sep-08 23:52N 36°32' E 014°11'712.7
2017-Sep-08 23:18N 36°29' E 014°19'412.7
2017-Sep-08 22:59N 36°28' E 014°24'612.6
2017-Sep-08 22:30N 36°27' E 014°32'612.6
2017-Sep-08 22:00N 36°25' E 014°39'  

Dump ship's entire track history